createdAt,value
2019-05-21T00:00:43.308Z,58.94
2019-05-21T00:01:43.431Z,57.8
2019-05-21T00:02:43.851Z,56.65
2019-05-21T00:03:44.025Z,58.65
2019-05-21T00:04:44.729Z,57.8
2019-05-21T00:05:44.694Z,56.56
2019-05-21T00:06:45.171Z,56.56
2019-05-21T00:07:45.630Z,55.42
2019-05-21T00:08:45.743Z,55.22
2019-05-21T00:09:46.437Z,55.04
2019-05-21T00:10:46.842Z,55.13
2019-05-21T00:11:47.307Z,55.8
2019-05-21T00:12:48.027Z,54.66
2019-05-21T00:13:48.148Z,55.22
2019-05-21T00:14:48.312Z,54.27
2019-05-21T00:15:48.574Z,53.7
2019-05-21T00:16:48.964Z,53.7
2019-05-21T00:17:49.667Z,53.52
2019-05-21T00:18:50.367Z,53.89
2019-05-21T00:19:51.354Z,53.32
2019-05-21T00:20:51.755Z,53.04
2019-05-21T00:21:52.190Z,54.08
2019-05-21T00:22:52.300Z,53.13
2019-05-21T00:23:53.286Z,52.75
2019-05-21T00:24:54.260Z,52.84
2019-05-21T00:25:54.372Z,51.64
2019-05-21T00:26:55.068Z,51.54
2019-05-21T00:27:55.851Z,51.25
2019-05-21T00:28:56.585Z,51.32
2019-05-21T00:29:56.699Z,51.64
2019-05-21T00:30:56.870Z,51.35
2019-05-21T00:31:57.821Z,51.82
2019-05-21T00:32:58.241Z,51.54
2019-05-21T00:33:58.692Z,52.49
2019-05-21T00:34:58.821Z,53.25
2019-05-21T00:36:00.050Z,53.73
2019-05-21T00:37:00.691Z,54.68
2019-05-21T00:38:00.815Z,54.68
2019-05-21T00:39:01.229Z,55.63
2019-05-21T00:40:01.373Z,57.26
2019-05-21T00:41:02.081Z,57.64
2019-05-21T00:42:02.524Z,59.92
2019-05-21T00:43:02.667Z,59.92
2019-05-21T00:44:02.795Z,59.74
2019-05-21T00:45:03.216Z,62.08
2019-05-21T00:46:04.166Z,61.99
2019-05-21T00:47:04.857Z,60.66
2019-05-21T00:48:05.823Z,63.32
2019-05-21T00:49:05.634Z,63.04
2019-05-21T00:50:06.129Z,64.5
2019-05-21T00:51:06.819Z,64.84
2019-05-21T00:52:13.593Z,64.94
2019-05-21T00:53:08.013Z,64.47
2019-05-21T00:54:08.458Z,64.65
2019-05-21T00:55:09.149Z,63.23
2019-05-21T00:56:10.396Z,62.75
2019-05-21T00:57:10.414Z,64.47
2019-05-21T00:58:11.258Z,64.56
2019-05-21T00:59:11.982Z,65.03
2019-05-21T01:00:13.314Z,65.51
2019-05-21T01:01:12.894Z,65.7
2019-05-21T01:02:13.592Z,65.42
2019-05-21T01:03:13.998Z,64.65
2019-05-21T01:04:14.384Z,63.04
2019-05-21T01:05:15.107Z,63.04
2019-05-21T01:06:16.052Z,62.65
2019-05-21T01:07:16.792Z,62.37
2019-05-21T01:08:17.206Z,62.56
2019-05-21T01:09:18.229Z,62.37
2019-05-21T01:10:18.634Z,61.32
2019-05-21T01:11:18.744Z,60.75
2019-05-21T01:12:19.158Z,61.51
2019-05-21T01:13:19.864Z,61.32
2019-05-21T01:14:19.978Z,62.37
2019-05-21T01:15:20.962Z,64.18
2019-05-21T01:16:21.895Z,63.13
2019-05-21T01:17:22.300Z,62.37
2019-05-21T01:18:22.412Z,61.22
2019-05-21T01:19:22.526Z,61.13
2019-05-21T01:20:23.523Z,61.61
2019-05-21T01:21:24.209Z,61.13
2019-05-21T01:22:24.907Z,61.7
2019-05-21T01:23:25.317Z,62.08
2019-05-21T01:24:25.728Z,62.27
2019-05-21T01:25:25.833Z,61.61
2019-05-21T01:26:26.765Z,62.46
2019-05-21T01:27:27.174Z,62.46
2019-05-21T01:28:27.859Z,63.8
2019-05-21T01:29:28.580Z,64.47
2019-05-21T01:30:29.263Z,64.47
2019-05-21T01:31:29.414Z,64.94
2019-05-21T01:32:30.486Z,64.56
2019-05-21T01:33:30.909Z,63.6
2019-05-21T01:34:31.466Z,65.51
2019-05-21T01:35:31.799Z,64.84
2019-05-21T01:36:32.601Z,61.99
2019-05-21T01:37:33.282Z,60.37
2019-05-21T01:38:33.687Z,60.56
2019-05-21T01:39:34.107Z,59.51
2019-05-21T01:40:34.529Z,59.23
2019-05-21T01:41:35.507Z,59.8
2019-05-21T01:42:35.914Z,59.61
2019-05-21T01:43:36.608Z,59.61
2019-05-21T01:44:36.998Z,59.8
2019-05-21T01:45:37.667Z,62.08
2019-05-21T01:46:38.597Z,63.23
2019-05-21T01:47:39.302Z,63.99
2019-05-21T01:48:39.994Z,64.18
2019-05-21T01:49:40.395Z,64.56
2019-05-21T01:50:40.515Z,64.47
2019-05-21T01:51:41.207Z,65.03
2019-05-21T01:52:41.388Z,65.23
2019-05-21T01:53:42.059Z,65.51
2019-05-21T01:54:42.176Z,65.03
2019-05-21T01:55:42.882Z,64.94
2019-05-21T01:56:43.846Z,64.94
2019-05-21T01:57:44.519Z,65.32
2019-05-21T01:58:44.911Z,65.7
2019-05-21T01:59:45.322Z,64.94
2019-05-21T02:00:46.312Z,66.75
2019-05-21T02:01:47.283Z,68.75
2019-05-21T02:02:47.390Z,69.04
2019-05-21T02:03:48.385Z,68.46
2019-05-21T02:04:48.814Z,67.99
2019-05-21T02:05:49.521Z,66.66
2019-05-21T02:06:50.465Z,65.23
2019-05-21T02:07:50.891Z,65.61
2019-05-21T02:08:51.936Z,65.23
2019-05-21T02:09:52.661Z,65.7
2019-05-21T02:10:52.784Z,65.89
2019-05-21T02:11:53.553Z,65.42
2019-05-21T02:12:53.963Z,65.32
2019-05-21T02:13:54.431Z,65.61
2019-05-21T02:14:54.543Z,65.61
2019-05-21T02:15:55.577Z,66.56
2019-05-21T02:16:56.330Z,67.51
2019-05-21T02:17:56.715Z,66.85
2019-05-21T02:18:56.879Z,66.08
2019-05-21T02:19:57.656Z,64.56
2019-05-21T02:20:58.650Z,63.32
2019-05-21T02:21:59.037Z,63.7
2019-05-21T02:22:59.145Z,64.75
2019-05-21T02:23:59.844Z,65.51
2019-05-21T02:25:00.245Z,65.42
2019-05-21T02:26:00.691Z,65.42
2019-05-21T02:27:00.899Z,64.84
2019-05-21T02:28:01.331Z,64.84
2019-05-21T02:29:01.901Z,64.94
2019-05-21T02:30:03.749Z,64.28
2019-05-21T02:31:03.048Z,64.65
2019-05-21T02:32:03.807Z,64.65
2019-05-21T02:33:04.503Z,63.8
2019-05-21T02:34:04.898Z,63.99
2019-05-21T02:35:05.647Z,63.35
2019-05-21T02:36:05.669Z,62.37
2019-05-21T02:37:08.971Z,61.42
2019-05-21T02:38:06.966Z,61.32
2019-05-21T02:39:07.991Z,62.37
2019-05-21T02:40:08.425Z,63.42
2019-05-21T02:41:08.843Z,64.18
2019-05-21T02:42:09.508Z,64.65
2019-05-21T02:43:10.198Z,65.13
2019-05-21T02:44:10.875Z,66.31
2019-05-21T02:45:11.288Z,68.18
2019-05-21T02:46:12.019Z,68.56
2019-05-21T02:47:12.962Z,70.08
2019-05-21T02:48:13.983Z,71.32
2019-05-21T02:49:14.425Z,70.65
2019-05-21T02:50:15.421Z,70.27
2019-05-21T02:51:15.422Z,70.08
2019-05-21T02:52:15.823Z,69.13
2019-05-21T02:53:16.535Z,68.69
2019-05-21T02:54:16.955Z,68.65
2019-05-21T02:55:18.281Z,68.78
2019-05-21T02:56:19.264Z,68.37
2019-05-21T02:57:19.496Z,70.75
2019-05-21T02:58:20.191Z,69.89
2019-05-21T02:59:20.620Z,69.04
2019-05-21T03:00:21.608Z,69.13
2019-05-21T03:01:23.216Z,68.84
2019-05-21T03:02:22.669Z,68.46
2019-05-21T03:03:23.361Z,69.79
2019-05-21T03:04:23.800Z,71.22
2019-05-21T03:05:24.489Z,70.65
2019-05-21T03:06:25.487Z,69.51
2019-05-21T03:07:25.914Z,69.7
2019-05-21T03:08:26.516Z,71.22
2019-05-21T03:09:27.226Z,71.98
2019-05-21T03:10:27.623Z,72.08
2019-05-21T03:11:28.343Z,71.22
2019-05-21T03:12:29.033Z,71.22
2019-05-21T03:13:30.150Z,69.04
2019-05-21T03:14:30.866Z,69.79
2019-05-21T03:15:30.848Z,69.42
2019-05-21T03:16:31.858Z,70.47
2019-05-21T03:17:32.404Z,69.7
2019-05-21T03:18:32.812Z,69.89
2019-05-21T03:19:34.089Z,67.7
2019-05-21T03:20:34.199Z,67.89
2019-05-21T03:21:34.618Z,69.51
2019-05-21T03:22:35.320Z,70.56
2019-05-21T03:23:36.609Z,70.37
2019-05-21T03:24:36.748Z,73.03
2019-05-21T03:25:37.449Z,74.46
2019-05-21T03:26:38.474Z,73.51
2019-05-21T03:27:38.692Z,72.85
2019-05-21T03:28:39.408Z,73.7
2019-05-21T03:29:40.194Z,73.99
2019-05-21T03:30:41.192Z,74.75
2019-05-21T03:31:41.613Z,74.56
2019-05-21T03:32:42.182Z,73.03
2019-05-21T03:33:42.439Z,73.13
2019-05-21T03:34:43.441Z,73.41
2019-05-21T03:35:44.172Z,70.18
2019-05-21T03:36:44.526Z,69.32
2019-05-21T03:37:45.089Z,67.7
2019-05-21T03:38:46.118Z,69.13
2019-05-21T03:39:47.133Z,69.89
2019-05-21T03:40:47.884Z,69.54
2019-05-21T03:41:48.600Z,69.23
2019-05-21T03:42:49.296Z,69.89
2019-05-21T03:43:49.999Z,70.94
2019-05-21T03:45:07.672Z,70.65
2019-05-21T03:45:51.058Z,69.32
2019-05-21T03:46:52.057Z,67.89
2019-05-21T03:47:52.859Z,66.85
2019-05-21T03:48:53.595Z,66.27
2019-05-21T03:49:54.071Z,66.56
2019-05-21T03:50:54.774Z,65.32
2019-05-21T03:51:55.488Z,65.23
2019-05-21T03:52:56.205Z,66.08
2019-05-21T03:53:56.497Z,67.32
2019-05-21T03:54:56.908Z,67.03
2019-05-21T03:55:57.781Z,66.08
2019-05-21T03:56:58.502Z,65.32
2019-05-21T03:57:58.481Z,63.89
2019-05-21T03:58:59.479Z,64.75
2019-05-21T04:00:00.176Z,64.18
2019-05-21T04:01:00.881Z,63.89
2019-05-21T04:02:01.078Z,63.23
2019-05-21T04:03:01.842Z,63.8
2019-05-21T04:04:03.149Z,63.89
2019-05-21T04:05:03.440Z,64.37
2019-05-21T04:06:04.144Z,63.42
2019-05-21T04:07:04.865Z,63.04
2019-05-21T04:08:05.386Z,64.08
2019-05-21T04:09:06.383Z,63.04
2019-05-21T04:10:07.386Z,65.23
2019-05-21T04:11:08.122Z,65.42
2019-05-21T04:12:08.552Z,66.88
2019-05-21T04:13:09.288Z,67.83
2019-05-21T04:14:09.545Z,66.4
2019-05-21T04:15:10.296Z,64.97
2019-05-21T04:16:10.694Z,65.45
2019-05-21T04:17:11.457Z,65.36
2019-05-21T04:18:11.998Z,65.83
2019-05-21T04:19:12.427Z,66.78
2019-05-21T04:20:12.607Z,66.97
2019-05-21T04:21:13.014Z,66.78
2019-05-21T04:22:13.136Z,66.5
2019-05-21T04:23:13.548Z,66.88
2019-05-21T04:24:15.158Z,69.93
2019-05-21T04:25:13.869Z,70.59
2019-05-21T04:26:14.021Z,71.17
2019-05-21T04:27:14.452Z,70.59
2019-05-21T04:28:15.349Z,70.21
2019-05-21T04:29:15.905Z,69.64
2019-05-21T04:30:16.752Z,68.78
2019-05-21T04:31:16.746Z,68.3
2019-05-21T04:32:17.488Z,69.93
2019-05-21T04:33:18.752Z,70.5
2019-05-21T04:34:19.451Z,70.69
2019-05-21T04:35:20.142Z,70.69
2019-05-21T04:36:21.186Z,70.69
2019-05-21T04:37:23.231Z,69.83
2019-05-21T04:38:23.468Z,69.17
2019-05-21T04:39:24.307Z,72.02
2019-05-21T04:40:24.456Z,71.93
2019-05-21T04:41:25.235Z,72.21
2019-05-21T04:42:25.944Z,71.17
2019-05-21T04:43:26.632Z,69.64
2019-05-21T04:44:27.338Z,68.98
2019-05-21T04:45:27.792Z,66.69
2019-05-21T04:46:28.498Z,65.73
2019-05-21T04:47:28.638Z,65.64
2019-05-21T04:48:29.204Z,67.35
2019-05-21T04:49:30.083Z,67.26
2019-05-21T04:50:30.798Z,66.21
2019-05-21T04:51:31.611Z,65.64
2019-05-21T04:52:31.901Z,64.5
2019-05-21T04:53:32.314Z,62.3
2019-05-21T04:54:32.717Z,63.83
2019-05-21T04:55:33.723Z,64.78
2019-05-21T04:56:34.174Z,64.31
2019-05-21T04:57:37.386Z,64.87
2019-05-21T04:58:35.586Z,64.87
2019-05-21T04:59:35.863Z,66.69
2019-05-21T05:00:36.282Z,65.92
2019-05-21T05:01:36.862Z,66.11
2019-05-21T05:02:37.280Z,66.31
2019-05-21T05:03:37.303Z,66.02
2019-05-21T05:04:38.295Z,64.78
2019-05-21T05:05:38.725Z,68.69
2019-05-21T05:06:39.425Z,68.4
2019-05-21T05:07:40.464Z,67.83
2019-05-21T05:08:40.417Z,66.88
2019-05-21T05:09:40.810Z,66.31
2019-05-21T05:10:40.927Z,65.45
2019-05-21T05:11:41.376Z,66.11
2019-05-21T05:12:41.851Z,66.5
2019-05-21T05:13:42.279Z,66.21
2019-05-21T05:14:42.687Z,66.59
2019-05-21T05:15:43.707Z,66.11
2019-05-21T05:16:44.413Z,65.64
2019-05-21T05:17:44.859Z,65.07
2019-05-21T05:18:45.376Z,64.02
2019-05-21T05:19:45.847Z,64.02
2019-05-21T05:20:46.248Z,65.83
2019-05-21T05:21:46.655Z,67.93
2019-05-21T05:22:46.813Z,67.55
2019-05-21T05:23:47.502Z,67.26
2019-05-21T05:24:47.737Z,66.69
2019-05-21T05:25:48.440Z,66.78
2019-05-21T05:26:48.833Z,66.5
2019-05-21T05:27:48.967Z,66.5
2019-05-21T05:28:49.195Z,67.35
2019-05-21T05:29:49.596Z,69.45
2019-05-21T05:30:49.759Z,72.97
2019-05-21T05:31:51.036Z,72.69
2019-05-21T05:32:51.450Z,71.26
2019-05-21T05:33:51.861Z,70.4
2019-05-21T05:34:52.541Z,69.17
2019-05-21T05:35:52.656Z,68.4
2019-05-21T05:36:53.345Z,67.64
2019-05-21T05:37:54.764Z,67.74
2019-05-21T05:38:54.715Z,72.02
2019-05-21T05:39:55.145Z,71.83
2019-05-21T05:40:55.851Z,71.26
2019-05-21T05:41:56.710Z,70.78
2019-05-21T05:42:57.121Z,71.64
2019-05-21T05:43:58.119Z,72.97
2019-05-21T05:44:58.521Z,72.02
2019-05-21T05:45:59.793Z,73.36
2019-05-21T05:47:00.486Z,74.98
2019-05-21T05:48:00.604Z,75.74
2019-05-21T05:49:01.945Z,76.03
2019-05-21T05:50:02.333Z,76.03
2019-05-21T05:51:02.475Z,75.93
2019-05-21T05:52:03.121Z,74.88
2019-05-21T05:53:03.866Z,73.74
2019-05-21T05:54:07.473Z,72.78
2019-05-21T05:55:05.138Z,72.5
2019-05-21T05:56:06.230Z,72.97
2019-05-21T05:57:06.438Z,72.6
2019-05-21T05:58:07.191Z,74.02
2019-05-21T05:59:07.716Z,72.97
2019-05-21T06:00:07.580Z,74.02
2019-05-21T06:01:08.895Z,73.17
2019-05-21T06:02:09.443Z,71.83
2019-05-21T06:03:09.845Z,71.07
2019-05-21T06:04:10.923Z,71.17
2019-05-21T06:05:12.186Z,71.26
2019-05-21T06:06:13.051Z,70.31
2019-05-21T06:07:12.030Z,70.02
2019-05-21T06:08:12.141Z,70.02
2019-05-21T06:09:12.686Z,69.45
2019-05-21T06:10:13.381Z,69.26
2019-05-21T06:11:14.583Z,69.45
2019-05-21T06:12:15.139Z,69.35
2019-05-21T06:13:15.826Z,70.69
2019-05-21T06:14:16.845Z,71.96
2019-05-21T06:15:17.334Z,72.97
2019-05-21T06:16:18.596Z,73.65
2019-05-21T06:17:17.804Z,73.93
2019-05-21T06:18:18.515Z,74.12
2019-05-21T06:19:18.746Z,73.65
2019-05-21T06:20:19.419Z,72.02
2019-05-21T06:21:19.859Z,73.17
2019-05-21T06:22:20.893Z,74.02
2019-05-21T06:23:21.097Z,78.5
2019-05-21T06:24:21.108Z,79.27
2019-05-21T06:25:21.519Z,78.88
2019-05-21T06:26:22.249Z,78.41
2019-05-21T06:27:22.959Z,76.59
2019-05-21T06:28:23.373Z,75.16
2019-05-21T06:29:24.382Z,75.26
2019-05-21T06:30:25.108Z,74.02
2019-05-21T06:31:26.057Z,77.26
2019-05-21T06:32:27.427Z,78.03
2019-05-21T06:33:28.015Z,78.31
2019-05-21T06:34:29.737Z,81.26
2019-05-21T06:35:28.721Z,81.07
2019-05-21T06:36:30.139Z,79.17
2019-05-21T06:37:30.271Z,78.69
2019-05-21T06:38:30.959Z,78.98
2019-05-21T06:39:32.185Z,78.41
2019-05-21T06:40:32.895Z,77.45
2019-05-21T06:41:32.788Z,76.79
2019-05-21T06:42:33.214Z,75.07
2019-05-21T06:43:33.633Z,73.07
2019-05-21T06:44:34.323Z,74.98
2019-05-21T06:45:34.627Z,74.12
2019-05-21T06:46:35.048Z,75.74
2019-05-21T06:47:36.384Z,75.64
2019-05-21T06:48:37.117Z,75.45
2019-05-21T06:49:37.628Z,76.88
2019-05-21T06:50:38.392Z,77.17
2019-05-21T06:51:38.964Z,76.69
2019-05-21T06:52:39.759Z,75.84
2019-05-21T06:53:41.684Z,76.4
2019-05-21T06:54:40.844Z,78.5
2019-05-21T06:55:41.290Z,80.12
2019-05-21T06:56:42.552Z,80.79
2019-05-21T06:57:43.247Z,78.88
2019-05-21T06:58:43.661Z,77.55
2019-05-21T06:59:44.250Z,77.74
2019-05-21T07:00:44.953Z,78.69
2019-05-21T07:01:45.362Z,79.64
2019-05-21T07:02:47.973Z,78.59
2019-05-21T07:03:48.326Z,77.55
2019-05-21T07:04:47.726Z,78.5
2019-05-21T07:06:04.497Z,79.27
2019-05-21T07:06:50.438Z,78.69
2019-05-21T07:07:51.356Z,85.93
2019-05-21T07:08:50.456Z,81.74
2019-05-21T07:09:51.403Z,77.74
2019-05-21T07:10:51.831Z,82.03
2019-05-21T07:11:52.288Z,86.41
2019-05-21T07:12:52.403Z,84.88
2019-05-21T07:13:52.837Z,83.55
2019-05-21T07:14:53.857Z,86.03
2019-05-21T07:15:54.298Z,82.69
2019-05-21T07:16:54.131Z,82.89
2019-05-21T07:17:54.297Z,78.78
2019-05-21T07:18:55.219Z,79.27
2019-05-21T07:19:55.720Z,79.83
2019-05-21T07:20:55.844Z,81.17
2019-05-21T07:22:11.361Z,87.65
2019-05-21T07:22:57.369Z,85.93
2019-05-21T07:23:57.182Z,85.27
2019-05-21T07:24:57.299Z,85.84
2019-05-21T07:25:57.421Z,96.22
2019-05-21T07:26:57.601Z,92.98
2019-05-21T07:27:58.015Z,88.31
2019-05-21T07:29:01.750Z,88.12
2019-05-21T07:29:59.717Z,91.17
2019-05-21T07:31:00.141Z,88.6
2019-05-21T07:32:00.880Z,88.41
2019-05-21T07:33:01.670Z,88.03
2019-05-21T07:34:01.977Z,90.12
2019-05-21T07:35:02.426Z,91.55
2019-05-21T07:36:03.411Z,92.32
2019-05-21T07:37:03.149Z,91.94
2019-05-21T07:38:04.425Z,90.79
2019-05-21T07:39:04.306Z,90.7
2019-05-21T07:40:04.568Z,89.36
2019-05-21T07:41:05.568Z,89.75
2019-05-21T07:42:05.729Z,89.17
2019-05-21T07:43:05.868Z,87.65
2019-05-21T07:44:06.014Z,85.74
2019-05-21T07:45:06.704Z,86.69
2019-05-21T07:46:08.378Z,84.6
2019-05-21T07:47:09.270Z,82.89
2019-05-21T07:48:08.623Z,82.03
2019-05-21T07:49:09.067Z,81.84
2019-05-21T07:50:09.749Z,90.79
2019-05-21T07:51:10.172Z,89.26
2019-05-21T07:52:10.633Z,88.6
2019-05-21T07:53:11.054Z,88.41
2019-05-21T07:54:12.050Z,83.59
2019-05-21T07:55:12.485Z,85.88
2019-05-21T07:56:12.899Z,85.88
2019-05-21T07:57:13.032Z,86.45
2019-05-21T07:58:14.040Z,86.74
2019-05-21T07:59:14.778Z,86.45
2019-05-21T08:00:15.773Z,85.6
2019-05-21T08:01:16.838Z,86.65
2019-05-21T08:02:17.530Z,88.17
2019-05-21T08:03:18.810Z,88.36
2019-05-21T08:04:19.225Z,87.5
2019-05-21T08:05:19.710Z,86.74
2019-05-21T08:06:20.785Z,85.5
2019-05-21T08:07:20.519Z,86.26
2019-05-21T08:08:20.967Z,85.31
2019-05-21T08:09:21.539Z,84.07
2019-05-21T08:10:22.202Z,83.69
2019-05-21T08:11:22.597Z,86.36
2019-05-21T08:12:42.843Z,85.69
2019-05-21T08:13:23.250Z,85.78
2019-05-21T08:14:23.950Z,84.74
2019-05-21T08:15:25.397Z,84.36
2019-05-21T08:16:25.375Z,88.17
2019-05-21T08:17:26.399Z,86.07
2019-05-21T08:18:27.088Z,85.69
2019-05-21T08:19:30.969Z,85.69
2019-05-21T08:20:28.330Z,86.55
2019-05-21T08:21:28.457Z,84.74
2019-05-21T08:22:29.147Z,84.64
2019-05-21T08:23:29.561Z,82.17
2019-05-21T08:24:29.964Z,85.5
2019-05-21T08:25:30.162Z,84.83
2019-05-21T08:26:31.176Z,86.55
2019-05-21T08:27:31.315Z,86.36
2019-05-21T08:28:32.025Z,87.5
2019-05-21T08:29:32.715Z,88.64
2019-05-21T08:30:33.138Z,87.5
2019-05-21T08:31:33.636Z,88.17
2019-05-21T08:32:34.355Z,90.08
2019-05-21T08:33:34.750Z,86.55
2019-05-21T08:34:34.873Z,88.26
2019-05-21T08:35:36.248Z,87.79
2019-05-21T08:36:38.310Z,88.36
2019-05-21T08:37:37.558Z,88.36
2019-05-21T08:38:38.188Z,90.26
2019-05-21T08:39:38.325Z,90.26
2019-05-21T08:40:39.301Z,88.17
2019-05-21T08:41:40.301Z,86.26
2019-05-21T08:42:40.312Z,87.69
2019-05-21T08:43:40.717Z,90.84
2019-05-21T08:44:41.707Z,88.84
2019-05-21T08:45:42.451Z,88.36
2019-05-21T08:46:43.263Z,87.31
2019-05-21T08:47:45.141Z,89.22
2019-05-21T08:48:44.380Z,91.79
2019-05-21T08:49:44.496Z,91.79
2019-05-21T08:50:45.293Z,90.17
2019-05-21T08:51:45.430Z,86.83
2019-05-21T08:52:47.397Z,88.26
2019-05-21T08:53:46.575Z,87.07
2019-05-21T08:54:47.312Z,86.55
2019-05-21T08:55:47.173Z,88.26
2019-05-21T08:56:47.592Z,87.4
2019-05-21T08:58:05.420Z,89.79
2019-05-21T08:58:48.610Z,89.89
2019-05-21T08:59:49.308Z,83.4
2019-05-21T09:00:50.321Z,81.97
2019-05-21T09:01:51.623Z,82.54
2019-05-21T09:02:51.548Z,82.26
2019-05-21T09:03:52.294Z,82.35
2019-05-21T09:04:54.317Z,84.55
2019-05-21T09:05:52.783Z,83.12
2019-05-21T09:06:55.150Z,86.6
2019-05-21T09:07:59.487Z,81.97
2019-05-21T09:08:54.419Z,82.45
2019-05-21T09:09:56.905Z,82.73
2019-05-21T09:10:55.102Z,82.26
2019-05-21T09:11:56.114Z,82.31
2019-05-21T09:12:56.515Z,83.12
2019-05-21T09:13:56.699Z,80.83
2019-05-21T09:14:57.576Z,80.73
2019-05-21T09:15:58.381Z,80.07
2019-05-21T09:16:58.496Z,79.59
2019-05-21T09:18:00.539Z,81.4
2019-05-21T09:18:59.248Z,82.98
2019-05-21T09:19:59.951Z,79.88
2019-05-21T09:20:59.888Z,81.97
2019-05-21T09:22:00.861Z,81.78
2019-05-21T09:23:01.853Z,80.64
2019-05-21T09:24:02.870Z,81.68
2019-05-21T09:25:04.185Z,81.02
2019-05-21T09:26:04.467Z,80.44
2019-05-21T09:27:05.175Z,80.54
2019-05-21T09:28:05.873Z,83.97
2019-05-21T09:29:06.358Z,86.45
2019-05-21T09:30:07.342Z,84.26
2019-05-21T09:31:09.110Z,82.54
2019-05-21T09:32:08.417Z,80.83
2019-05-21T09:33:09.133Z,81.88
2019-05-21T09:34:09.274Z,84.64
2019-05-21T09:35:09.723Z,83.88
2019-05-21T09:36:11.847Z,84.36
2019-05-21T09:37:25.298Z,86.07
2019-05-21T09:38:12.014Z,85.12
2019-05-21T09:39:13.668Z,86.07
2019-05-21T09:40:14.239Z,85.88
2019-05-21T09:41:15.132Z,83.59
2019-05-21T09:42:13.937Z,83.21
2019-05-21T09:43:14.394Z,87.69
2019-05-21T09:44:15.101Z,84.92
2019-05-21T09:45:15.807Z,82.45
2019-05-21T09:46:16.232Z,81.97
2019-05-21T09:47:18.230Z,86.36
2019-05-21T09:48:17.729Z,90.84
2019-05-21T09:49:17.537Z,89.89
2019-05-21T09:50:17.957Z,88.74
2019-05-21T09:51:25.308Z,88.74
2019-05-21T09:52:18.724Z,91.69
2019-05-21T09:53:19.437Z,91.79
2019-05-21T09:54:22.008Z,96.94
2019-05-21T09:55:21.643Z,90.36
2019-05-21T09:56:21.921Z,91.41
2019-05-21T09:57:22.610Z,95.41
2019-05-21T09:58:23.028Z,91.6
2019-05-21T09:59:24.348Z,93.12
2019-05-21T10:00:25.404Z,95.22
2019-05-21T10:01:25.054Z,91.98
2019-05-21T10:02:25.658Z,90.45
2019-05-21T10:03:26.228Z,89.6
2019-05-21T10:04:26.617Z,89.69
2019-05-21T10:05:27.091Z,88.26
2019-05-21T10:06:27.797Z,88.64
2019-05-21T10:07:45.973Z,86.93
2019-05-21T10:08:28.980Z,86.55
2019-05-21T10:09:29.365Z,85.02
2019-05-21T10:10:29.498Z,86.55
2019-05-21T10:11:30.419Z,88.55
2019-05-21T10:12:31.579Z,87.69
2019-05-21T10:13:31.816Z,93.03
2019-05-21T10:14:34.016Z,93.03
2019-05-21T10:15:32.117Z,89.4
2019-05-21T10:16:32.842Z,92.27
2019-05-21T10:17:33.627Z,87.98
2019-05-21T10:18:33.959Z,86.36
2019-05-21T10:19:34.388Z,88.84
2019-05-21T10:20:35.105Z,86.45
2019-05-21T10:21:35.144Z,84.64
2019-05-21T10:22:36.321Z,89.5
2019-05-21T10:23:35.738Z,91.31
2019-05-21T10:24:37.457Z,89.4
2019-05-21T10:25:37.981Z,84.36
2019-05-21T10:26:38.855Z,84.83
2019-05-21T10:27:40.213Z,89.69
2019-05-21T10:28:39.784Z,90.26
2019-05-21T10:29:40.815Z,90.45
2019-05-21T10:30:41.249Z,85.31
2019-05-21T10:31:41.524Z,86.74
2019-05-21T10:32:42.494Z,87.98
2019-05-21T10:33:43.639Z,88.26
2019-05-21T10:34:42.890Z,89.03
2019-05-21T10:35:43.609Z,88.17
2019-05-21T10:36:43.755Z,85.97
2019-05-21T10:37:59.270Z,84.64
2019-05-21T10:38:45.102Z,85.78
2019-05-21T10:39:45.898Z,84.55
2019-05-21T10:40:45.439Z,84.16
2019-05-21T10:41:47.321Z,84.55
2019-05-21T10:42:47.040Z,88.64
2019-05-21T10:43:47.875Z,89.5
2019-05-21T10:44:48.307Z,88.07
2019-05-21T10:45:49.537Z,85.93
2019-05-21T10:46:49.602Z,86.69
2019-05-21T10:47:50.400Z,89.07
2019-05-21T10:48:51.439Z,88.4
2019-05-21T10:49:52.737Z,87.74
2019-05-21T10:50:53.788Z,85.31
2019-05-21T10:51:54.030Z,81.06
2019-05-21T10:52:54.352Z,82.59
2019-05-21T10:53:55.081Z,82.59
2019-05-21T10:54:57.099Z,84.4
2019-05-21T10:55:57.098Z,86.69
2019-05-21T10:56:58.257Z,89.93
2019-05-21T10:57:58.145Z,91.36
2019-05-21T10:58:59.237Z,91.83
2019-05-21T11:00:00.923Z,98.8
2019-05-21T11:01:00.820Z,96.22
2019-05-21T11:02:00.983Z,93.65
2019-05-21T11:03:01.238Z,93.55
2019-05-21T11:04:02.242Z,94.03
2019-05-21T11:05:02.955Z,88.78
2019-05-21T11:06:15.227Z,94.7
2019-05-21T11:07:04.663Z,95.75
2019-05-21T11:08:28.933Z,92.12
2019-05-21T11:09:05.229Z,89.45
2019-05-21T11:10:06.686Z,89.26
2019-05-21T11:11:06.360Z,88.78
2019-05-21T11:12:07.742Z,86.4
2019-05-21T11:13:08.467Z,85.73
2019-05-21T11:14:09.462Z,84.88
2019-05-21T11:15:10.164Z,86.69
2019-05-21T11:16:11.544Z,86.11
2019-05-21T11:17:12.016Z,85.54
2019-05-21T11:18:16.860Z,83.64
2019-05-21T11:19:12.303Z,81.54
2019-05-21T11:20:12.431Z,90.79
2019-05-21T11:21:12.879Z,86.78
2019-05-21T11:22:13.385Z,91.36
2019-05-21T11:23:14.136Z,91.64
2019-05-21T11:24:14.724Z,93.08
2019-05-21T11:25:15.055Z,88.4
2019-05-21T11:26:15.781Z,88.59
2019-05-21T11:27:16.182Z,88.21
2019-05-21T11:28:16.582Z,91.64
2019-05-21T11:29:17.733Z,89.93
2019-05-21T11:30:18.362Z,88.31
2019-05-21T11:31:19.086Z,85.83
2019-05-21T11:32:20.043Z,90.41
2019-05-21T11:33:20.172Z,88.5
2019-05-21T11:34:20.886Z,88.69
2019-05-21T11:35:21.610Z,86.88
2019-05-21T11:36:21.943Z,90.31
2019-05-21T11:37:22.058Z,99.46
2019-05-21T11:38:22.189Z,91.93
2019-05-21T11:39:23.226Z,94.89
2019-05-21T11:40:25.023Z,92.22
2019-05-21T11:41:24.422Z,92.88
2019-05-21T11:42:26.955Z,97.08
2019-05-21T11:43:25.720Z,96.17
2019-05-21T11:44:25.932Z,92.98
2019-05-21T11:45:37.967Z,92.17
2019-05-21T11:46:27.063Z,93.12
2019-05-21T11:47:28.159Z,95.89
2019-05-21T11:48:27.966Z,92.36
2019-05-21T11:49:29.247Z,92.74
2019-05-21T11:50:31.533Z,96.27
2019-05-21T11:51:30.375Z,95.61
2019-05-21T11:52:30.880Z,96.56
2019-05-21T11:53:32.059Z,97.71
2019-05-21T11:54:31.905Z,95.79
2019-05-21T11:55:32.332Z,98.08
2019-05-21T11:56:35.938Z,99.52
2019-05-21T11:57:34.018Z,99.99
2019-05-21T11:58:39.533Z,99.71
2019-05-21T11:59:34.877Z,99.99
2019-05-21T12:00:35.306Z,99.99
2019-05-21T12:01:35.995Z,99.99
2019-05-21T12:02:36.901Z,99.99
2019-05-21T12:03:38.198Z,99.99
2019-05-21T12:04:38.637Z,99.08
2019-05-21T12:05:38.857Z,98.08
2019-05-21T12:06:39.288Z,97.27
2019-05-21T12:07:39.474Z,99.99
2019-05-21T12:08:55.394Z,99.99
2019-05-21T12:09:41.093Z,99.99
2019-05-21T12:10:41.782Z,99.66
2019-05-21T12:11:41.899Z,96.03
2019-05-21T12:12:42.727Z,97.85
2019-05-21T12:13:43.597Z,96.98
2019-05-21T12:14:43.854Z,99.66
2019-05-21T12:15:44.573Z,99.99
2019-05-21T12:16:45.256Z,99.99
2019-05-21T12:17:46.040Z,99.99
2019-05-21T12:18:47.711Z,99.99
2019-05-21T12:19:46.930Z,99.99
2019-05-21T12:20:47.108Z,99.13
2019-05-21T12:21:48.380Z,97.46
2019-05-21T12:22:48.621Z,95.46
2019-05-21T12:23:49.799Z,94.93
2019-05-21T12:24:49.783Z,96.66
2019-05-21T12:25:50.502Z,96.17
2019-05-21T12:26:51.207Z,99.99
2019-05-21T12:27:51.897Z,99.99
2019-05-21T12:28:52.376Z,99.99
2019-05-21T12:29:54.417Z,99.99
2019-05-21T12:30:53.862Z,98.75
2019-05-21T12:31:54.574Z,97.89
2019-05-21T12:32:54.920Z,99.99
2019-05-21T12:33:55.502Z,99.99
2019-05-21T12:34:56.501Z,99.99
2019-05-21T12:35:57.334Z,98.08
2019-05-21T12:36:58.315Z,97.75
2019-05-21T12:37:58.900Z,99.99
2019-05-21T12:39:12.992Z,99.99
2019-05-21T12:40:00.138Z,99.99
2019-05-21T12:41:00.542Z,99.99
2019-05-21T12:42:01.829Z,99.99
2019-05-21T12:43:02.451Z,99.99
2019-05-21T12:44:02.579Z,99.99
2019-05-21T12:45:03.322Z,99.99
2019-05-21T12:46:03.608Z,99.99
2019-05-21T12:47:04.017Z,99.99
2019-05-21T12:48:04.851Z,99.99
2019-05-21T12:49:04.984Z,99.99
2019-05-21T12:50:05.995Z,99.99
2019-05-21T12:51:06.591Z,99.99
2019-05-21T12:52:07.026Z,99.99
2019-05-21T12:53:07.902Z,99.99
2019-05-21T12:54:08.430Z,99.99
2019-05-21T12:55:09.409Z,99.99
2019-05-21T12:56:10.240Z,99.99
2019-05-21T12:57:10.396Z,99.99
2019-05-21T12:58:10.521Z,99.99
2019-05-21T12:59:10.988Z,99.99
2019-05-21T13:00:11.767Z,99.99
2019-05-21T13:01:12.286Z,99.99
2019-05-21T13:02:12.424Z,99.99